createdAt,value
2017-09-11T00:00:05.777Z,14.20
2017-09-11T00:02:33.250Z,14.20
2017-09-11T00:05:00.694Z,14.20
2017-09-11T00:07:28.142Z,14.20
2017-09-11T00:09:55.607Z,14.20
2017-09-11T00:12:23.050Z,14.10
2017-09-11T00:14:50.504Z,14.10
2017-09-11T00:17:17.953Z,14.10
2017-09-11T00:19:45.402Z,14.10
2017-09-11T00:22:12.850Z,14.00
2017-09-11T00:24:40.328Z,14.00
2017-09-11T01:00:03.306Z,13.80
2017-09-11T01:02:30.750Z,13.80
2017-09-11T01:04:58.206Z,13.80
2017-09-11T01:07:25.655Z,13.80
2017-09-11T01:09:53.105Z,13.70
2017-09-11T01:12:20.583Z,13.80
2017-09-11T01:14:48.037Z,13.80
2017-09-11T01:17:15.491Z,13.80
2017-09-11T01:19:42.957Z,13.80
2017-09-11T01:22:10.402Z,13.80
2017-09-11T01:24:37.854Z,13.90
2017-09-11T01:27:05.349Z,13.90
2017-09-11T01:29:32.799Z,13.80
2017-09-11T01:32:00.638Z,13.90
2017-09-11T01:34:28.102Z,13.90
2017-09-11T01:36:55.549Z,13.90
2017-09-11T01:39:23.006Z,13.90
2017-09-11T01:41:50.469Z,14.00
2017-09-11T01:44:18.309Z,13.90
2017-09-11T01:46:45.770Z,13.90
2017-09-11T01:49:13.249Z,13.90
2017-09-11T01:51:41.091Z,13.90
2017-09-11T01:54:08.545Z,13.90
2017-09-11T01:56:36.011Z,13.90
2017-09-11T01:59:03.462Z,13.90
2017-09-11T02:01:30.902Z,13.90
2017-09-11T02:03:58.374Z,13.90
2017-09-11T02:06:25.825Z,13.90
2017-09-11T02:08:53.274Z,13.90
2017-09-11T02:11:21.009Z,14.00
2017-09-11T02:13:48.467Z,14.10
2017-09-11T02:16:15.930Z,14.10
2017-09-11T02:18:43.605Z,14.10
2017-09-11T02:21:11.054Z,14.10
2017-09-11T02:23:38.510Z,14.20
2017-09-11T02:26:06.214Z,14.20
2017-09-11T02:28:33.629Z,14.20
2017-09-11T02:31:01.078Z,14.20
2017-09-11T02:33:28.946Z,14.30
2017-09-11T02:35:56.398Z,14.30
2017-09-11T02:38:23.857Z,14.30
2017-09-11T02:40:51.615Z,14.20
2017-09-11T02:43:19.063Z,14.20
2017-09-11T02:45:46.506Z,14.30
2017-09-11T02:48:13.983Z,14.30
2017-09-11T02:50:41.432Z,14.30
2017-09-11T02:53:08.885Z,14.30
2017-09-11T02:55:36.562Z,14.30
2017-09-11T02:58:04.020Z,14.30
2017-09-11T03:00:31.471Z,14.30
2017-09-11T03:02:59.127Z,14.40
2017-09-11T03:05:26.587Z,14.30
2017-09-11T03:07:54.040Z,14.40
2017-09-11T03:10:21.508Z,14.40
2017-09-11T03:12:48.980Z,14.30
2017-09-11T03:15:16.490Z,14.30
2017-09-11T03:17:43.950Z,14.30
2017-09-11T03:20:11.415Z,14.30
2017-09-11T03:22:38.913Z,14.30
2017-09-11T03:25:06.367Z,14.30
2017-09-11T03:27:33.821Z,14.30
2017-09-11T03:30:01.695Z,14.40
2017-09-11T03:32:29.155Z,14.40
2017-09-11T03:34:56.606Z,14.40
2017-09-11T03:37:24.088Z,14.40
2017-09-11T03:39:51.543Z,14.40
2017-09-11T03:42:19.011Z,14.40
2017-09-11T03:44:46.478Z,14.40
2017-09-11T03:47:13.963Z,14.40
2017-09-11T03:49:41.815Z,14.40
2017-09-11T03:52:09.698Z,14.50
2017-09-11T03:54:37.547Z,14.40
2017-09-11T03:57:05.402Z,14.50
2017-09-11T03:59:33.062Z,14.50
2017-09-11T04:02:00.516Z,14.50
2017-09-11T04:04:27.967Z,14.50
2017-09-11T04:06:55.463Z,14.50
2017-09-11T04:09:22.915Z,14.50
2017-09-11T04:11:50.371Z,14.50
2017-09-11T04:14:17.842Z,14.60
2017-09-11T04:16:45.295Z,14.60
2017-09-11T04:19:13.003Z,14.60
2017-09-11T04:21:40.459Z,14.60
2017-09-11T04:24:07.915Z,14.60
2017-09-11T04:26:35.570Z,14.60
2017-09-11T04:29:03.027Z,14.60
2017-09-11T04:31:30.482Z,14.60
2017-09-11T04:33:57.952Z,14.60
2017-09-11T04:36:25.399Z,14.60
2017-09-11T04:38:52.859Z,14.50
2017-09-11T04:41:20.919Z,13.90
2017-09-11T04:43:48.376Z,13.90
2017-09-11T04:46:15.822Z,14.00
2017-09-11T04:48:43.591Z,14.00
2017-09-11T04:51:11.053Z,14.00
2017-09-11T04:53:38.503Z,13.70
2017-09-11T04:56:05.994Z,13.60
2017-09-11T04:58:33.447Z,13.50
2017-09-11T05:01:00.908Z,13.60
2017-09-11T05:03:28.570Z,13.40
2017-09-11T05:05:56.025Z,13.40
2017-09-11T05:08:23.484Z,13.30
2017-09-11T05:10:51.219Z,13.40
2017-09-11T05:13:19.067Z,13.40
2017-09-11T05:15:46.532Z,13.40
2017-09-11T05:18:14.008Z,13.40
2017-09-11T05:20:41.473Z,13.50
2017-09-11T05:23:09.042Z,13.50
2017-09-11T05:25:36.491Z,13.50
2017-09-11T05:28:03.974Z,13.50
2017-09-11T05:30:31.440Z,13.60
2017-09-11T05:32:58.896Z,13.60
2017-09-11T05:35:26.375Z,13.60
2017-09-11T05:37:54.362Z,13.70
2017-09-11T05:40:22.208Z,13.70
2017-09-11T05:42:50.346Z,13.70
2017-09-11T05:45:17.803Z,13.70
2017-09-11T05:47:45.259Z,13.70
2017-09-11T05:50:12.743Z,13.70
2017-09-11T05:52:40.597Z,13.80
2017-09-11T05:55:08.051Z,13.90
2017-09-11T05:57:35.812Z,13.60
2017-09-11T06:00:03.271Z,13.60
2017-09-11T06:02:30.732Z,13.60
2017-09-11T06:04:58.199Z,13.80
2017-09-11T06:07:26.050Z,13.90
2017-09-11T06:09:53.505Z,13.90
2017-09-11T06:12:21.011Z,13.90
2017-09-11T06:14:48.466Z,13.90
2017-09-11T06:17:15.938Z,14.10
2017-09-11T06:19:43.390Z,14.20
2017-09-11T06:22:10.849Z,14.20
2017-09-11T06:24:38.355Z,14.30
2017-09-11T06:27:06.206Z,14.40
2017-09-11T06:29:33.662Z,14.40
2017-09-11T06:32:01.126Z,14.40
2017-09-11T06:34:28.971Z,14.40
2017-09-11T06:36:56.427Z,14.50
2017-09-11T06:39:23.899Z,14.50
2017-09-11T06:41:51.759Z,14.50
2017-09-11T06:44:19.208Z,14.50
2017-09-11T06:46:47.131Z,14.60
2017-09-11T06:49:14.590Z,14.60
2017-09-11T06:51:42.227Z,14.60
2017-09-11T06:54:09.707Z,14.60
2017-09-11T06:56:37.327Z,14.60
2017-09-11T06:59:04.802Z,14.60
2017-09-11T07:01:32.715Z,14.70
2017-09-11T07:04:00.234Z,14.70
2017-09-11T07:06:27.685Z,14.70
2017-09-11T07:08:55.147Z,14.70
2017-09-11T07:11:22.630Z,14.80
2017-09-11T07:13:50.082Z,14.80
2017-09-11T07:16:17.540Z,14.80
2017-09-11T07:18:45.119Z,14.70
2017-09-11T07:21:12.566Z,14.80
2017-09-11T07:23:40.018Z,14.80
2017-09-11T07:26:07.746Z,14.80
2017-09-11T07:28:35.199Z,14.90
2017-09-11T07:31:02.663Z,14.90
2017-09-11T07:33:30.134Z,14.90
2017-09-11T07:35:57.580Z,15.00
2017-09-11T07:38:25.040Z,15.00
2017-09-11T07:40:52.490Z,15.10
2017-09-11T07:43:19.972Z,15.10
2017-09-11T07:45:47.435Z,15.10
2017-09-11T07:48:14.898Z,15.10
2017-09-11T07:50:42.754Z,15.10
2017-09-11T07:53:10.606Z,15.10
2017-09-11T07:55:38.051Z,15.10
2017-09-11T07:58:05.540Z,15.10
2017-09-11T08:00:32.999Z,15.10
2017-09-11T08:03:00.863Z,15.30
2017-09-11T08:05:28.448Z,15.30
2017-09-11T08:07:55.907Z,15.30
2017-09-11T08:10:23.372Z,15.40
2017-09-11T08:12:50.851Z,15.50
2017-09-11T08:15:18.310Z,15.60
2017-09-11T08:17:45.773Z,15.70
2017-09-11T08:20:13.258Z,15.70
2017-09-11T08:22:41.111Z,15.60
2017-09-11T08:25:08.971Z,15.70
2017-09-11T08:27:36.835Z,15.60
2017-09-11T08:30:04.678Z,15.50
2017-09-11T08:32:32.134Z,15.50
2017-09-11T08:34:59.618Z,15.50
2017-09-11T08:37:27.476Z,15.50
2017-09-11T08:39:55.323Z,15.50
2017-09-11T08:42:22.796Z,15.50
2017-09-11T08:44:50.640Z,15.60
2017-09-11T08:47:18.153Z,15.60
2017-09-11T08:49:45.620Z,15.60
2017-09-11T08:52:13.067Z,15.60
2017-09-11T08:54:40.528Z,15.70
2017-09-11T08:57:08.191Z,16.00
2017-09-11T08:59:35.639Z,16.20
2017-09-11T09:02:03.091Z,16.10
2017-09-11T09:04:30.567Z,16.00
2017-09-11T09:06:58.026Z,15.80
2017-09-11T09:09:25.474Z,15.70
2017-09-11T09:11:52.935Z,15.80
2017-09-11T09:14:20.399Z,15.90
2017-09-11T09:16:47.872Z,16.10
2017-09-11T09:19:15.319Z,16.10
2017-09-11T09:21:42.776Z,16.20
2017-09-11T09:24:10.256Z,16.60
2017-09-11T09:26:38.111Z,16.80
2017-09-11T09:29:05.970Z,16.90
2017-09-11T09:31:33.497Z,16.90
2017-09-11T09:34:00.970Z,16.90
2017-09-11T09:36:28.423Z,17.10
2017-09-11T09:38:56.036Z,17.20
2017-09-11T09:41:23.491Z,17.30
2017-09-11T09:43:50.956Z,17.40
2017-09-11T09:46:18.523Z,17.50
2017-09-11T09:48:45.982Z,17.40
2017-09-11T09:51:13.435Z,17.30
2017-09-11T09:53:40.915Z,17.70
2017-09-11T09:56:08.370Z,17.80
2017-09-11T09:58:35.855Z,17.50
2017-09-11T10:01:03.751Z,18.20
2017-09-11T10:03:31.206Z,18.20
2017-09-11T10:05:58.667Z,18.20
2017-09-11T10:08:26.468Z,18.20
2017-09-11T10:10:53.923Z,17.50
2017-09-11T10:13:21.382Z,17.20
2017-09-11T10:15:48.862Z,17.60
2017-09-11T10:18:16.715Z,17.80
2017-09-11T10:20:44.562Z,17.70
2017-09-11T10:23:12.058Z,17.70
2017-09-11T10:25:39.510Z,17.80
2017-09-11T10:28:06.980Z,17.70
2017-09-11T10:30:34.467Z,17.60
2017-09-11T10:33:01.923Z,17.70
2017-09-11T10:35:29.374Z,17.40
2017-09-11T10:37:57.050Z,17.50
2017-09-11T10:40:24.506Z,17.50
2017-09-11T10:42:51.964Z,17.50
2017-09-11T10:45:19.620Z,17.60
2017-09-11T10:47:47.079Z,17.40
2017-09-11T10:50:14.530Z,17.40
2017-09-11T10:52:41.998Z,17.50
2017-09-11T10:55:09.480Z,17.90
2017-09-11T10:57:37.326Z,18.40
2017-09-11T11:00:05.183Z,18.40
2017-09-11T11:02:32.634Z,18.40
2017-09-11T11:05:00.115Z,18.50
2017-09-11T11:07:27.575Z,18.30
2017-09-11T11:09:55.031Z,18.20
2017-09-11T11:12:22.516Z,18.60
2017-09-11T11:14:49.974Z,18.40
2017-09-11T11:17:17.426Z,18.30
2017-09-11T11:19:45.222Z,18.60
2017-09-11T11:22:12.674Z,18.40
2017-09-11T11:24:40.131Z,18.50
2017-09-11T11:27:07.629Z,19.00
2017-09-11T11:29:35.075Z,19.30
2017-09-11T11:32:02.527Z,19.10
2017-09-11T11:34:30.423Z,19.20
2017-09-11T11:36:57.879Z,19.20
2017-09-11T11:39:25.330Z,19.20
2017-09-11T11:41:53.135Z,19.70
2017-09-11T11:44:20.596Z,19.40
2017-09-11T11:46:48.051Z,20.30
2017-09-11T11:49:15.542Z,20.60
2017-09-11T11:51:43.003Z,22.00
2017-09-11T11:54:10.467Z,22.00
2017-09-11T11:56:38.040Z,22.10
2017-09-11T11:59:05.492Z,21.00
2017-09-11T12:01:32.949Z,21.50
2017-09-11T12:04:00.431Z,22.60
2017-09-11T12:06:27.896Z,21.90
2017-09-11T12:08:55.358Z,20.40
2017-09-11T12:11:22.806Z,21.30
2017-09-11T12:13:50.259Z,21.50
2017-09-11T12:16:18.022Z,20.50
2017-09-11T12:18:45.476Z,20.80
2017-09-11T12:21:12.939Z,22.20
2017-09-11T12:23:40.435Z,23.20
2017-09-11T12:26:07.887Z,21.60
2017-09-11T12:28:35.347Z,20.30
2017-09-11T12:31:02.914Z,21.80
2017-09-11T12:33:30.371Z,22.50
2017-09-11T12:35:57.924Z,21.20
2017-09-11T12:38:25.418Z,21.90
2017-09-11T12:40:52.870Z,22.40
2017-09-11T12:43:20.325Z,23.70
2017-09-11T12:45:47.791Z,22.80
2017-09-11T12:48:15.242Z,23.40
2017-09-11T12:50:42.703Z,22.50
2017-09-11T12:53:10.871Z,21.80
2017-09-11T12:55:38.327Z,21.80
2017-09-11T12:58:05.779Z,22.10
2017-09-11T13:00:33.258Z,21.70
2017-09-11T13:03:01.106Z,21.80
2017-09-11T13:05:28.563Z,21.80
2017-09-11T13:07:56.067Z,20.70
2017-09-11T13:10:23.533Z,21.10
2017-09-11T13:12:50.987Z,19.00
2017-09-11T13:15:18.471Z,18.40
2017-09-11T13:17:45.923Z,18.10
2017-09-11T13:20:13.379Z,18.10
2017-09-11T13:22:41.261Z,17.90
2017-09-11T13:25:08.720Z,17.00
2017-09-11T13:27:36.191Z,18.00
2017-09-11T13:30:04.058Z,18.20
2017-09-11T13:32:31.899Z,18.10
2017-09-11T13:34:59.351Z,18.10
2017-09-11T13:37:26.823Z,20.10
2017-09-11T13:39:54.779Z,19.90
2017-09-11T13:42:22.236Z,19.90
2017-09-11T13:44:49.707Z,19.10
2017-09-11T13:47:17.555Z,19.10
2017-09-11T13:49:45.008Z,19.10
2017-09-11T13:52:12.487Z,18.90
2017-09-11T13:54:40.335Z,20.00
2017-09-11T13:57:08.184Z,18.90
2017-09-11T13:59:35.931Z,18.90
2017-09-11T14:02:03.383Z,18.80
2017-09-11T14:04:30.844Z,19.50
2017-09-11T14:06:58.342Z,20.80
2017-09-11T14:09:25.762Z,22.00
2017-09-11T14:11:53.223Z,20.90
2017-09-11T14:14:20.983Z,21.70
2017-09-11T14:16:48.448Z,21.70
2017-09-11T14:19:16.311Z,21.50
2017-09-11T14:21:43.771Z,21.50
2017-09-11T14:24:11.229Z,20.10
2017-09-11T14:26:39.074Z,19.90
2017-09-11T14:29:06.531Z,21.60
2017-09-11T14:31:33.988Z,20.70
2017-09-11T14:34:01.463Z,21.10
2017-09-11T14:36:29.325Z,22.20
2017-09-11T14:38:57.170Z,21.60
2017-09-11T14:41:24.644Z,21.70
2017-09-11T14:43:52.521Z,19.90
2017-09-11T14:46:20.391Z,19.60
2017-09-11T14:48:47.868Z,19.60
2017-09-11T14:51:15.324Z,20.00
2017-09-11T14:53:42.780Z,21.30
2017-09-11T14:56:10.245Z,21.50
2017-09-11T14:58:37.702Z,20.10
2017-09-11T15:01:05.429Z,19.40
2017-09-11T15:03:32.919Z,19.00
2017-09-11T15:06:00.380Z,18.60
2017-09-11T15:08:27.851Z,18.30
2017-09-11T15:10:55.303Z,18.10
2017-09-11T15:13:22.762Z,18.00
2017-09-11T15:15:50.247Z,18.00
2017-09-11T15:18:18.094Z,17.80
2017-09-11T15:20:45.542Z,17.80
2017-09-11T15:23:13.028Z,17.70
2017-09-11T15:25:40.878Z,14.30
2017-09-11T15:28:08.730Z,13.90
2017-09-11T15:30:36.214Z,13.90
2017-09-11T15:33:04.058Z,13.50
2017-09-11T15:35:31.507Z,13.50
2017-09-11T15:37:59.002Z,13.60
2017-09-11T15:40:26.460Z,13.80
2017-09-11T15:42:53.907Z,14.30
2017-09-11T15:45:22.313Z,14.70
2017-09-11T15:47:49.772Z,14.90
2017-09-11T15:50:17.220Z,15.00
2017-09-11T15:52:44.923Z,15.10
2017-09-11T15:55:12.403Z,15.20
2017-09-11T15:57:40.252Z,15.20
2017-09-11T16:00:07.705Z,15.20
2017-09-11T16:02:35.870Z,15.40
2017-09-11T16:05:03.330Z,15.40
2017-09-11T16:07:31.027Z,15.50
2017-09-11T16:09:58.542Z,15.50
2017-09-11T16:12:26.002Z,15.60
2017-09-11T16:14:53.755Z,15.60
2017-09-11T16:17:21.225Z,15.70
2017-09-11T16:19:48.678Z,15.70
2017-09-11T16:22:16.147Z,15.80
2017-09-11T16:24:44.434Z,15.90
2017-09-11T16:27:12.094Z,15.90
2017-09-11T16:29:39.585Z,15.90
2017-09-11T16:32:07.049Z,15.90
2017-09-11T16:34:34.554Z,16.00
2017-09-11T16:37:02.411Z,15.90
2017-09-11T16:39:30.275Z,15.90
2017-09-11T16:41:58.319Z,15.90
2017-09-11T16:44:26.684Z,15.90
2017-09-11T16:46:54.156Z,15.80
2017-09-11T16:49:21.617Z,15.80
2017-09-11T16:51:49.338Z,15.80
2017-09-11T16:54:16.787Z,15.80
2017-09-11T16:56:44.255Z,15.80
2017-09-11T16:59:11.755Z,15.70
2017-09-11T17:01:39.618Z,15.60
2017-09-11T17:04:07.480Z,15.60
2017-09-11T17:06:34.932Z,15.60
2017-09-11T17:09:02.798Z,15.60
2017-09-11T17:11:30.247Z,15.60
2017-09-11T17:13:57.702Z,15.50
2017-09-11T17:16:25.612Z,15.60
2017-09-11T17:18:53.115Z,15.60
2017-09-11T17:21:20.639Z,15.50
2017-09-11T17:23:48.126Z,15.40
2017-09-11T17:26:15.591Z,15.40
2017-09-11T17:28:43.453Z,15.30
2017-09-11T17:31:11.108Z,15.40
2017-09-11T17:33:38.871Z,15.30
2017-09-11T17:36:06.327Z,15.30
2017-09-11T17:38:33.827Z,15.40
2017-09-11T17:41:01.298Z,15.40
2017-09-11T17:43:28.755Z,15.40
2017-09-11T17:45:56.447Z,15.50
2017-09-11T17:48:23.912Z,15.50
2017-09-11T17:50:51.511Z,15.50
2017-09-11T17:53:18.963Z,15.50
2017-09-11T17:55:46.459Z,15.50
2017-09-11T17:58:13.911Z,15.50
2017-09-11T18:00:41.365Z,15.40
2017-09-11T18:03:08.860Z,15.30
2017-09-11T18:05:36.315Z,15.40
2017-09-11T18:08:03.762Z,15.30
2017-09-11T18:10:31.696Z,15.40
2017-09-11T18:12:59.156Z,15.30
2017-09-11T18:15:26.610Z,15.40
2017-09-11T18:17:54.087Z,15.30
2017-09-11T18:20:21.551Z,15.30
2017-09-11T18:22:48.995Z,15.30
2017-09-11T18:25:16.484Z,15.30
2017-09-11T18:27:44.628Z,15.40
2017-09-11T18:30:12.115Z,15.40
2017-09-11T18:32:39.571Z,15.30
2017-09-11T18:35:07.052Z,15.30
2017-09-11T18:37:35.511Z,15.20
2017-09-11T18:40:02.968Z,15.30
2017-09-11T18:42:30.448Z,15.20
2017-09-11T18:44:57.899Z,15.20
2017-09-11T18:47:25.435Z,15.20
2017-09-11T18:49:52.909Z,15.30
2017-09-11T18:52:20.713Z,15.30
2017-09-11T18:54:48.583Z,15.30
2017-09-11T18:57:16.446Z,15.20
2017-09-11T18:59:43.922Z,15.20
2017-09-11T19:02:11.775Z,15.20
2017-09-11T19:04:39.631Z,15.20
2017-09-11T19:07:07.112Z,15.20
2017-09-11T19:09:35.102Z,15.20
2017-09-11T19:12:02.563Z,15.20
2017-09-11T19:14:30.270Z,15.20
2017-09-11T19:16:57.751Z,15.20
2017-09-11T19:19:25.598Z,15.30
2017-09-11T19:21:53.450Z,15.30
2017-09-11T19:24:21.330Z,15.40
2017-09-11T19:26:49.462Z,15.40
2017-09-11T19:29:16.926Z,15.40
2017-09-11T19:31:44.401Z,15.40
2017-09-11T19:34:12.307Z,15.40
2017-09-11T19:36:39.759Z,15.40
2017-09-11T19:39:07.234Z,15.50
2017-09-11T19:41:34.802Z,15.40
2017-09-11T19:44:02.267Z,15.30
2017-09-11T19:46:29.723Z,15.30
2017-09-11T19:48:57.289Z,15.30
2017-09-11T19:51:24.749Z,15.20
2017-09-11T19:53:52.194Z,15.20
2017-09-11T19:56:19.864Z,15.20
2017-09-11T19:58:47.336Z,15.20
2017-09-11T20:01:14.807Z,15.20
2017-09-11T20:03:42.655Z,15.10
2017-09-11T20:06:10.111Z,15.10
2017-09-11T20:08:37.975Z,15.20
2017-09-11T20:11:05.429Z,15.20
2017-09-11T20:13:32.889Z,15.10
2017-09-11T20:16:00.359Z,15.20
2017-09-11T20:18:28.211Z,15.20
2017-09-11T20:20:56.067Z,15.20
2017-09-11T20:23:23.630Z,15.20
2017-09-11T20:25:51.125Z,15.20
2017-09-11T20:28:18.660Z,15.20
2017-09-11T20:30:46.551Z,15.10
2017-09-11T20:33:14.006Z,15.10
2017-09-11T20:35:41.462Z,15.20
2017-09-11T20:38:08.918Z,15.10
2017-09-11T20:40:36.379Z,15.10
2017-09-11T20:43:04.115Z,15.10
2017-09-11T20:45:31.571Z,15.10
2017-09-11T20:47:59.143Z,15.10
2017-09-11T20:50:26.628Z,15.10
2017-09-11T20:52:54.075Z,15.10
2017-09-11T20:55:21.538Z,15.10
2017-09-11T20:57:49.031Z,15.10
2017-09-11T21:00:16.875Z,15.00
2017-09-11T21:02:44.338Z,15.10
2017-09-11T21:05:11.814Z,15.00
2017-09-11T21:07:39.671Z,15.00
2017-09-11T21:12:41.587Z,15.00
2017-09-11T21:15:09.080Z,15.00
2017-09-11T21:17:36.547Z,14.90
2017-09-11T21:20:04.008Z,15.00
2017-09-11T21:22:32.123Z,14.90
2017-09-11T21:24:59.579Z,14.90
2017-09-11T21:27:27.039Z,15.00
2017-09-11T21:29:54.599Z,15.00
2017-09-11T21:32:22.052Z,15.00
2017-09-11T21:34:49.510Z,15.00
2017-09-11T21:37:16.958Z,15.00
2017-09-11T21:39:44.443Z,14.90
2017-09-11T21:42:11.907Z,15.00
2017-09-11T21:44:39.359Z,15.00
2017-09-11T21:47:06.846Z,15.00
2017-09-11T21:49:34.311Z,14.90
2017-09-11T21:52:01.767Z,15.00
2017-09-11T21:54:29.580Z,15.00
2017-09-11T21:56:57.050Z,15.00
2017-09-11T21:59:24.907Z,14.80
2017-09-11T22:01:52.567Z,14.80
2017-09-11T22:04:20.035Z,14.90
2017-09-11T22:06:47.897Z,14.90
2017-09-11T22:09:15.795Z,14.90
2017-09-11T22:11:43.252Z,14.90
2017-09-11T22:14:10.703Z,14.90
2017-09-11T22:16:38.176Z,14.90
2017-09-11T22:19:05.639Z,14.80
2017-09-11T22:21:33.091Z,14.80
2017-09-11T22:24:00.567Z,14.90
2017-09-11T22:26:28.018Z,14.90
2017-09-11T22:28:55.479Z,14.90
2017-09-11T22:31:22.982Z,14.90
2017-09-11T22:33:50.439Z,14.80
2017-09-11T22:36:17.902Z,14.70
2017-09-11T22:38:45.419Z,14.80
2017-09-11T22:41:12.867Z,14.70
2017-09-11T22:43:40.319Z,14.60
2017-09-11T22:46:07.794Z,14.70
2017-09-11T22:48:35.643Z,14.50
2017-09-11T22:51:03.104Z,14.50
2017-09-11T22:53:30.600Z,14.50
2017-09-11T22:55:58.055Z,14.60
2017-09-11T22:58:25.523Z,14.50
2017-09-11T23:00:52.987Z,14.50
2017-09-11T23:03:20.438Z,14.50
2017-09-11T23:05:47.911Z,14.50
2017-09-11T23:08:15.371Z,14.40
2017-09-11T23:10:42.834Z,14.40
2017-09-11T23:13:10.334Z,14.40
2017-09-11T23:15:38.188Z,14.40
2017-09-11T23:18:06.030Z,14.40
2017-09-11T23:20:34.394Z,14.40
2017-09-11T23:23:01.862Z,14.30
2017-09-11T23:25:29.315Z,14.40
2017-09-11T23:27:56.779Z,14.40
2017-09-11T23:30:24.634Z,14.30
2017-09-11T23:32:52.087Z,14.30
2017-09-11T23:35:19.567Z,14.30
2017-09-11T23:37:47.430Z,14.20
2017-09-11T23:40:15.291Z,14.20
2017-09-11T23:42:43.170Z,14.20
2017-09-11T23:45:11.024Z,14.20
2017-09-11T23:47:38.866Z,14.20
2017-09-11T23:50:06.339Z,14.20
2017-09-11T23:52:34.193Z,14.20
2017-09-11T23:55:01.658Z,14.20
2017-09-11T23:57:29.519Z,14.30
2017-09-11T23:59:56.975Z,14.30
